createdAt,value
2022-12-12T00:00:34.737Z,20.67
2022-12-12T00:03:01.592Z,20.80
2022-12-12T00:05:28.232Z,20.57
2022-12-12T00:07:55.050Z,19.10
2022-12-12T00:10:22.047Z,20.57
2022-12-12T00:12:48.623Z,17.03
2022-12-12T00:15:15.315Z,18.63
2022-12-12T00:17:42.323Z,18.97
2022-12-12T00:20:08.976Z,18.53
2022-12-12T00:22:35.553Z,17.13
2022-12-12T00:25:02.109Z,18.20
2022-12-12T00:27:28.678Z,17.47
2022-12-12T00:29:55.875Z,18.23
2022-12-12T00:32:22.410Z,18.23
2022-12-12T00:34:48.963Z,21.30
2022-12-12T00:37:15.596Z,23.60
2022-12-12T00:39:42.445Z,23.57
2022-12-12T00:42:08.989Z,18.23
2022-12-12T00:44:35.578Z,17.20
2022-12-12T00:47:02.955Z,19.40
2022-12-12T00:49:30.562Z,19.03
2022-12-12T00:51:57.105Z,16.83
2022-12-12T00:54:24.109Z,24.10
2022-12-12T00:56:50.753Z,18.80
2022-12-12T00:59:17.392Z,18.57
2022-12-12T01:01:45.056Z,16.37
2022-12-12T01:04:11.623Z,15.80
2022-12-12T01:06:38.358Z,20.40
2022-12-12T01:09:05.043Z,14.40
2022-12-12T01:11:31.629Z,15.40
2022-12-12T01:13:58.244Z,15.50
2022-12-12T01:16:24.981Z,14.43
2022-12-12T01:18:51.628Z,17.00
2022-12-12T01:21:20.123Z,18.40
2022-12-12T01:23:46.713Z,18.00
2022-12-12T01:26:16.994Z,15.70
2022-12-12T01:28:43.803Z,16.30
2022-12-12T01:31:10.949Z,17.17
2022-12-12T01:33:37.666Z,17.00
2022-12-12T01:36:05.231Z,18.87
2022-12-12T01:38:31.819Z,18.83
2022-12-12T01:40:58.411Z,17.43
2022-12-12T01:43:25.594Z,15.50
2022-12-12T01:45:58.489Z,17.37
2022-12-12T01:48:36.800Z,16.63
2022-12-12T01:51:09.306Z,18.10
2022-12-12T01:53:36.949Z,21.37
2022-12-12T01:56:12.376Z,18.27
2022-12-12T01:58:45.034Z,26.17
2022-12-12T02:01:12.520Z,18.13
2022-12-12T02:03:40.066Z,17.10
2022-12-12T02:09:54.066Z,17.17
2022-12-12T02:12:20.584Z,17.33
2022-12-12T02:14:51.673Z,19.07
2022-12-12T02:17:39.746Z,17.60
2022-12-12T02:20:24.822Z,16.27
2022-12-12T02:23:14.343Z,17.00
2022-12-12T02:25:59.033Z,16.73
2022-12-12T02:28:49.486Z,14.70
2022-12-12T02:31:24.904Z,16.27
2022-12-12T02:34:19.669Z,17.80
2022-12-12T02:37:04.052Z,14.73
2022-12-12T02:40:03.867Z,17.00
2022-12-12T02:42:44.841Z,16.00
2022-12-12T02:45:27.796Z,16.17
2022-12-12T02:48:00.617Z,16.80
2022-12-12T02:50:30.762Z,17.37
2022-12-12T02:52:59.584Z,15.97
2022-12-12T02:55:26.186Z,16.67
2022-12-12T02:57:55.348Z,17.30
2022-12-12T03:00:22.082Z,18.27
2022-12-12T03:03:14.404Z,17.47
2022-12-12T03:06:11.898Z,18.50
2022-12-12T03:09:15.656Z,20.33
2022-12-12T03:12:10.772Z,16.87
2022-12-12T03:14:46.240Z,17.80
2022-12-12T03:17:35.604Z,16.50
2022-12-12T03:20:15.989Z,17.03
2022-12-12T03:23:02.569Z,18.27
2022-12-12T03:25:51.742Z,16.03
2022-12-12T03:28:39.708Z,13.70
2022-12-12T03:31:10.975Z,16.83
2022-12-12T03:33:48.878Z,15.43
2022-12-12T03:36:24.949Z,16.97
2022-12-12T03:38:59.787Z,16.07
2022-12-12T03:41:32.076Z,17.57
2022-12-12T03:44:24.045Z,18.40
2022-12-12T03:47:05.742Z,16.37
2022-12-12T03:50:12.397Z,18.27
2022-12-12T03:52:45.561Z,17.97
2022-12-12T03:55:22.972Z,17.57
2022-12-12T03:57:59.554Z,15.77
2022-12-12T04:00:28.375Z,17.43
2022-12-12T04:03:22.614Z,16.97
2022-12-12T04:06:27.420Z,13.60
2022-12-12T04:09:35.378Z,13.70
2022-12-12T04:12:35.752Z,15.77
2022-12-12T04:15:51.784Z,14.83
2022-12-12T04:18:37.101Z,17.10
2022-12-12T04:21:43.333Z,22.70
2022-12-12T04:24:31.759Z,16.77
2022-12-12T04:27:10.500Z,17.03
2022-12-12T04:29:52.150Z,16.07
2022-12-12T04:32:50.640Z,17.63
2022-12-12T04:35:24.661Z,17.43
2022-12-12T04:37:56.708Z,18.17
2022-12-12T04:40:27.733Z,17.33
2022-12-12T04:43:02.615Z,18.60
2022-12-12T04:45:35.680Z,15.77
2022-12-12T04:48:05.165Z,16.03
2022-12-12T04:50:33.129Z,17.37
2022-12-12T04:53:03.469Z,18.17
2022-12-12T04:55:35.088Z,21.63
2022-12-12T04:58:02.972Z,19.43
2022-12-12T05:00:41.446Z,20.10
2022-12-12T05:03:20.150Z,20.70
2022-12-12T05:06:02.157Z,20.77
2022-12-12T05:08:42.740Z,19.97
2022-12-12T05:11:10.044Z,19.57
2022-12-12T05:13:39.900Z,21.70
2022-12-12T05:16:29.534Z,19.37
2022-12-12T05:18:56.619Z,19.77
2022-12-12T05:21:23.456Z,19.63
2022-12-12T05:23:50.448Z,17.73
2022-12-12T05:26:22.322Z,22.23
2022-12-12T05:28:49.037Z,25.83
2022-12-12T05:31:15.702Z,21.67
2022-12-12T05:33:42.269Z,20.43
2022-12-12T05:36:09.109Z,19.50
2022-12-12T05:38:36.430Z,20.43
2022-12-12T05:41:03.469Z,19.23
2022-12-12T05:43:30.170Z,18.63
2022-12-12T05:45:57.448Z,19.57
2022-12-12T05:48:24.734Z,21.07
2022-12-12T05:50:52.417Z,19.63
2022-12-12T05:53:19.935Z,19.73
2022-12-12T05:55:46.756Z,19.40
2022-12-12T05:58:13.323Z,21.07
2022-12-12T06:00:40.142Z,19.13
2022-12-12T06:03:06.931Z,20.77
2022-12-12T06:05:33.605Z,20.07
2022-12-12T06:08:00.430Z,19.20
2022-12-12T06:10:27.193Z,20.80
2022-12-12T06:12:53.827Z,22.37
2022-12-12T06:15:20.417Z,19.27
2022-12-12T06:17:47.069Z,16.83
2022-12-12T06:20:13.673Z,22.77
2022-12-12T06:22:42.304Z,19.67
2022-12-12T06:25:09.502Z,19.37
2022-12-12T06:27:36.072Z,20.27
2022-12-12T06:30:04.131Z,19.47
2022-12-12T06:32:30.708Z,19.67
2022-12-12T06:34:57.272Z,22.07
2022-12-12T06:37:24.125Z,20.70
2022-12-12T06:39:50.899Z,20.50
2022-12-12T06:42:17.537Z,20.77
2022-12-12T06:44:44.154Z,18.87
2022-12-12T06:47:10.755Z,22.07
2022-12-12T06:49:37.357Z,21.60
2022-12-12T06:52:04.033Z,55.20
2022-12-12T06:54:30.732Z,33.73
2022-12-12T06:56:57.243Z,18.33
2022-12-12T06:59:23.895Z,19.60
2022-12-12T07:01:50.785Z,18.83
2022-12-12T07:04:17.386Z,21.07
2022-12-12T07:06:43.941Z,18.17
2022-12-12T07:09:10.506Z,20.77
2022-12-12T07:11:40.592Z,20.43
2022-12-12T07:14:07.745Z,19.83
2022-12-12T07:16:34.773Z,18.77
2022-12-12T07:19:01.305Z,24.27
2022-12-12T07:21:27.981Z,19.13
2022-12-12T07:23:57.045Z,14.47
2022-12-12T07:26:24.919Z,17.57
2022-12-12T07:28:51.754Z,18.23
2022-12-12T07:31:20.799Z,20.67
2022-12-12T07:33:47.645Z,17.80
2022-12-12T07:36:15.732Z,19.07
2022-12-12T07:38:43.057Z,20.10
2022-12-12T07:41:12.972Z,18.43
2022-12-12T07:43:44.080Z,18.70
2022-12-12T07:46:15.032Z,18.07
2022-12-12T07:48:42.167Z,20.07
2022-12-12T07:51:09.472Z,17.63
2022-12-12T07:53:36.504Z,15.87
2022-12-12T07:56:10.071Z,19.93
2022-12-12T07:58:37.480Z,18.87
2022-12-12T08:01:15.593Z,18.87
2022-12-12T08:03:43.793Z,17.83
2022-12-12T08:06:11.083Z,16.83
2022-12-12T08:08:37.889Z,18.83
2022-12-12T08:11:08.897Z,21.97
2022-12-12T08:13:37.526Z,25.17
2022-12-12T08:16:05.602Z,27.50
2022-12-12T08:18:32.548Z,29.40
2022-12-12T08:20:59.272Z,23.20
2022-12-12T08:23:26.054Z,20.40
2022-12-12T08:25:52.697Z,23.03
2022-12-12T08:28:19.275Z,20.27
2022-12-12T08:30:49.437Z,20.73
2022-12-12T08:33:15.977Z,20.07
2022-12-12T08:35:42.549Z,20.77
2022-12-12T08:38:09.091Z,18.33
2022-12-12T08:40:36.010Z,21.07
2022-12-12T08:43:02.594Z,22.83
2022-12-12T08:45:29.151Z,19.00
2022-12-12T08:47:55.644Z,20.90
2022-12-12T08:50:22.166Z,23.87
2022-12-12T08:52:48.691Z,27.77
2022-12-12T08:55:15.573Z,19.63
2022-12-12T08:57:42.414Z,26.00
2022-12-12T09:00:09.913Z,19.80
2022-12-12T09:02:36.548Z,16.93
2022-12-12T09:05:03.245Z,21.27
2022-12-12T09:07:29.770Z,20.77
2022-12-12T09:09:56.360Z,16.87
2022-12-12T09:12:23.056Z,18.93
2022-12-12T09:14:49.560Z,24.93
2022-12-12T09:17:16.076Z,21.83
2022-12-12T09:19:43.116Z,23.17
2022-12-12T09:22:09.625Z,20.13
2022-12-12T09:24:36.132Z,34.10
2022-12-12T09:27:02.676Z,40.97
2022-12-12T09:29:29.244Z,51.23
2022-12-12T09:31:55.826Z,27.47
2022-12-12T09:34:22.477Z,19.43
2022-12-12T09:36:48.987Z,23.63
2022-12-12T09:39:15.496Z,21.33
2022-12-12T09:41:42.066Z,20.30
2022-12-12T09:44:11.218Z,20.47
2022-12-12T09:46:44.159Z,19.20
2022-12-12T09:49:21.985Z,21.90
2022-12-12T09:51:50.783Z,19.33
2022-12-12T09:54:24.701Z,24.27
2022-12-12T09:56:57.332Z,16.83
2022-12-12T09:59:45.392Z,21.83
2022-12-12T10:02:45.527Z,20.20
2022-12-12T10:05:34.047Z,17.83
2022-12-12T10:08:25.167Z,26.73
2022-12-12T10:10:58.174Z,16.90
2022-12-12T10:13:31.590Z,16.70
2022-12-12T10:16:10.209Z,18.57
2022-12-12T10:18:41.298Z,19.00
2022-12-12T10:21:16.059Z,20.07
2022-12-12T10:23:47.736Z,19.83
2022-12-12T10:26:19.638Z,19.50
2022-12-12T10:28:52.161Z,17.40
2022-12-12T10:31:24.423Z,17.37
2022-12-12T10:34:01.710Z,17.77
2022-12-12T10:36:45.289Z,18.40
2022-12-12T10:40:07.174Z,16.93
2022-12-12T10:42:55.343Z,16.43
2022-12-12T10:45:36.926Z,15.73
2022-12-12T10:48:03.712Z,16.90
2022-12-12T10:50:38.363Z,16.87
2022-12-12T10:53:07.786Z,23.90
2022-12-12T10:55:53.759Z,19.47
2022-12-12T10:58:24.970Z,18.40
2022-12-12T11:00:52.041Z,16.83
2022-12-12T11:03:32.781Z,16.93
2022-12-12T11:06:05.098Z,16.87
2022-12-12T11:08:36.695Z,17.10
2022-12-12T11:11:03.402Z,17.13
2022-12-12T11:13:30.866Z,15.47
2022-12-12T11:16:16.581Z,16.40
2022-12-12T11:18:57.496Z,15.73
2022-12-12T11:21:24.433Z,15.00
2022-12-12T11:23:56.849Z,15.10
2022-12-12T11:26:23.865Z,15.87
2022-12-12T11:29:01.897Z,15.90
2022-12-12T11:31:34.138Z,16.47
2022-12-12T11:34:04.230Z,15.43
2022-12-12T11:36:37.406Z,14.90
2022-12-12T11:39:17.282Z,16.70
2022-12-12T11:42:04.638Z,15.03
2022-12-12T11:44:35.310Z,15.80
2022-12-12T11:47:26.949Z,16.97
2022-12-12T11:49:56.371Z,14.83
2022-12-12T11:52:32.689Z,14.80
2022-12-12T11:55:00.595Z,15.90
2022-12-12T11:58:04.642Z,14.73
2022-12-12T12:00:49.995Z,15.03
2022-12-12T12:03:40.929Z,15.50
2022-12-12T12:06:13.559Z,15.97
2022-12-12T12:08:58.372Z,16.13
2022-12-12T12:11:39.891Z,15.33
2022-12-12T12:14:15.659Z,15.30
2022-12-12T12:17:09.600Z,14.90
2022-12-12T12:19:42.411Z,13.83
2022-12-12T12:22:19.182Z,13.53
2022-12-12T12:25:12.926Z,14.97
2022-12-12T12:27:48.786Z,15.40
2022-12-12T12:30:24.657Z,14.60
2022-12-12T12:33:13.105Z,15.00
2022-12-12T12:35:52.024Z,14.83
2022-12-12T12:38:21.706Z,13.90
2022-12-12T12:40:48.143Z,14.43
2022-12-12T12:43:45.110Z,13.57
2022-12-12T12:46:33.504Z,13.80
2022-12-12T12:49:10.550Z,13.80
2022-12-12T12:51:47.078Z,13.67
2022-12-12T12:54:25.073Z,14.37
2022-12-12T12:57:00.633Z,14.10
2022-12-12T12:59:37.061Z,14.77
2022-12-12T13:02:16.311Z,17.50
2022-12-12T13:05:12.611Z,13.80
2022-12-12T13:07:48.337Z,12.70
2022-12-12T13:10:24.477Z,12.27
2022-12-12T13:13:04.912Z,12.07
2022-12-12T13:15:34.613Z,14.53
2022-12-12T13:18:04.635Z,13.93
2022-12-12T13:20:35.320Z,14.47
2022-12-12T13:23:19.179Z,14.00
2022-12-12T13:25:53.323Z,59.50
2022-12-12T13:28:25.590Z,15.43
2022-12-12T13:31:01.329Z,13.77
2022-12-12T13:33:57.462Z,13.93
2022-12-12T13:36:32.924Z,13.67
2022-12-12T13:39:02.365Z,12.90
2022-12-12T13:41:54.739Z,14.80
2022-12-12T13:44:33.345Z,14.20
2022-12-12T13:47:00.011Z,13.80
2022-12-12T13:49:54.196Z,13.97
2022-12-12T13:52:25.321Z,13.17
2022-12-12T13:55:20.813Z,13.77
2022-12-12T13:57:59.878Z,12.77
2022-12-12T14:00:31.170Z,12.53
2022-12-12T14:03:04.244Z,13.07
2022-12-12T14:05:35.284Z,12.93
2022-12-12T14:08:06.886Z,13.50
2022-12-12T14:10:50.652Z,13.17
2022-12-12T14:13:23.712Z,13.27
2022-12-12T14:16:04.980Z,14.73
2022-12-12T14:18:39.246Z,14.17
2022-12-12T14:21:10.405Z,15.97
2022-12-12T14:23:42.253Z,16.37
2022-12-12T14:26:27.396Z,16.70
2022-12-12T14:29:15.444Z,17.60
2022-12-12T14:32:08.190Z,21.00
2022-12-12T14:34:53.108Z,15.90
2022-12-12T14:37:28.822Z,14.97
2022-12-12T14:40:14.401Z,15.03
2022-12-12T14:43:20.566Z,14.17
2022-12-12T14:45:51.801Z,13.97
2022-12-12T14:48:31.243Z,15.20
2022-12-12T14:51:24.487Z,14.77
2022-12-12T14:53:57.806Z,14.60
2022-12-12T14:56:41.687Z,15.37
2022-12-12T14:59:22.928Z,16.93
2022-12-12T15:02:05.641Z,17.17
2022-12-12T15:04:36.145Z,15.23
2022-12-12T15:07:04.786Z,15.67
2022-12-12T15:09:32.287Z,15.07
2022-12-12T15:12:10.664Z,14.97
2022-12-12T15:14:52.413Z,13.60
2022-12-12T15:17:23.815Z,14.47
2022-12-12T15:19:53.836Z,13.60
2022-12-12T15:22:26.173Z,14.43
2022-12-12T15:24:54.322Z,14.23
2022-12-12T15:27:31.249Z,14.77
2022-12-12T15:29:59.529Z,19.43
2022-12-12T15:32:27.664Z,17.03
2022-12-12T15:35:14.480Z,15.17
2022-12-12T15:37:41.064Z,18.03
2022-12-12T15:40:10.301Z,16.40
2022-12-12T15:42:38.885Z,15.60
2022-12-12T15:45:09.330Z,16.03
2022-12-12T15:47:35.914Z,15.67
2022-12-12T15:50:12.918Z,15.77
2022-12-12T15:52:40.013Z,14.00
2022-12-12T15:55:08.101Z,15.10
2022-12-12T15:57:47.008Z,21.97
2022-12-12T16:00:33.528Z,29.97
2022-12-12T16:03:16.538Z,20.87
2022-12-12T16:05:43.915Z,19.07
2022-12-12T16:08:33.289Z,16.07
2022-12-12T16:11:02.987Z,15.47
2022-12-12T16:13:41.934Z,15.53
2022-12-12T16:16:55.963Z,15.70
2022-12-12T16:19:46.954Z,14.63
2022-12-12T16:22:16.640Z,15.50
2022-12-12T16:25:10.855Z,15.83
2022-12-12T16:27:37.489Z,16.07
2022-12-12T16:30:05.473Z,15.60
2022-12-12T16:32:32.049Z,16.43
2022-12-12T16:34:58.650Z,15.60
2022-12-12T16:37:25.213Z,16.43
2022-12-12T16:39:51.785Z,16.30
2022-12-12T16:42:20.045Z,16.37
2022-12-12T16:44:47.123Z,16.67
2022-12-12T16:47:19.089Z,16.13
2022-12-12T16:49:47.359Z,17.80
2022-12-12T16:52:15.998Z,16.80
2022-12-12T16:54:48.218Z,17.63
2022-12-12T16:57:19.295Z,16.70
2022-12-12T16:59:45.898Z,16.33
2022-12-12T17:02:22.162Z,16.97
2022-12-12T17:04:50.001Z,17.30
2022-12-12T17:07:17.175Z,17.00
2022-12-12T17:09:43.928Z,16.37
2022-12-12T17:12:12.988Z,17.17
2022-12-12T17:14:40.003Z,16.73
2022-12-12T17:17:06.696Z,16.63
2022-12-12T17:19:33.485Z,17.37
2022-12-12T17:22:00.583Z,17.60
2022-12-12T17:24:27.193Z,16.63
2022-12-12T17:26:54.107Z,16.80
2022-12-12T17:29:22.423Z,15.70
2022-12-12T17:31:49.038Z,16.77
2022-12-12T17:34:15.701Z,17.30
2022-12-12T17:36:42.281Z,15.97
2022-12-12T17:39:08.965Z,16.80
2022-12-12T17:41:35.515Z,17.20
2022-12-12T17:44:02.095Z,16.13
2022-12-12T17:46:29.947Z,16.50
2022-12-12T17:48:58.197Z,18.03
2022-12-12T17:51:24.921Z,16.30
2022-12-12T17:53:52.854Z,17.20
2022-12-12T17:56:25.177Z,16.20
2022-12-12T17:58:52.591Z,16.53
2022-12-12T18:01:20.846Z,16.50
2022-12-12T18:03:48.402Z,16.90
2022-12-12T18:06:16.655Z,15.57
2022-12-12T18:08:44.551Z,15.77
2022-12-12T18:11:17.659Z,16.03
2022-12-12T18:13:48.385Z,15.57
2022-12-12T18:16:15.261Z,15.97
2022-12-12T18:18:42.247Z,16.33
2022-12-12T18:21:12.957Z,16.00
2022-12-12T18:23:42.973Z,16.07
2022-12-12T18:26:17.245Z,16.63
2022-12-12T18:28:49.835Z,16.13
2022-12-12T18:31:16.424Z,14.80
2022-12-12T18:33:43.091Z,15.30
2022-12-12T18:36:13.407Z,16.73
2022-12-12T18:38:45.745Z,15.00
2022-12-12T18:41:15.109Z,15.20
2022-12-12T18:43:41.870Z,15.80
2022-12-12T18:46:11.375Z,15.17
2022-12-12T18:48:39.838Z,14.97
2022-12-12T18:51:10.697Z,15.03
2022-12-12T18:53:38.530Z,15.43
2022-12-12T18:56:11.184Z,15.73
2022-12-12T18:58:38.457Z,15.93
2022-12-12T19:01:05.989Z,14.73
2022-12-12T19:03:34.643Z,14.90
2022-12-12T19:06:05.892Z,14.50
2022-12-12T19:08:32.515Z,14.73
2022-12-12T19:10:59.156Z,14.80
2022-12-12T19:13:26.210Z,14.80
2022-12-12T19:15:52.926Z,14.17
2022-12-12T19:18:20.138Z,14.53
2022-12-12T19:20:46.646Z,14.57
2022-12-12T19:23:13.406Z,14.33
2022-12-12T19:25:42.991Z,16.13
2022-12-12T19:28:11.471Z,14.63
2022-12-12T19:30:41.713Z,14.47
2022-12-12T19:33:08.298Z,15.57
2022-12-12T19:35:38.150Z,16.23
2022-12-12T19:38:04.787Z,14.87
2022-12-12T19:40:31.332Z,15.57
2022-12-12T19:42:57.909Z,14.83
2022-12-12T19:45:24.544Z,14.10
2022-12-12T19:47:51.070Z,13.67
2022-12-12T19:50:17.867Z,14.60
2022-12-12T19:52:44.563Z,13.67
2022-12-12T19:55:11.089Z,13.67
2022-12-12T19:57:37.736Z,13.13
2022-12-12T20:00:04.987Z,13.80
2022-12-12T20:02:31.750Z,14.10
2022-12-12T20:04:58.494Z,13.47
2022-12-12T20:07:25.053Z,13.23
2022-12-12T20:09:51.605Z,14.07
2022-12-12T20:12:18.204Z,13.60
2022-12-12T20:14:44.835Z,13.90
2022-12-12T20:17:11.805Z,13.60
2022-12-12T20:19:38.630Z,13.27
2022-12-12T20:22:05.157Z,12.03
2022-12-12T20:24:33.708Z,13.37
2022-12-12T20:27:03.239Z,12.53
2022-12-12T20:29:30.618Z,12.57
2022-12-12T20:31:59.646Z,11.90
2022-12-12T20:34:26.407Z,12.30
2022-12-12T20:36:55.626Z,12.17
2022-12-12T20:39:24.884Z,11.17
2022-12-12T20:41:53.627Z,11.67
2022-12-12T20:44:20.615Z,11.10
2022-12-12T20:46:47.268Z,11.10
2022-12-12T20:49:18.734Z,11.67
2022-12-12T20:52:01.206Z,11.40
2022-12-12T20:54:29.426Z,11.20
2022-12-12T20:56:57.376Z,11.23
2022-12-12T20:59:24.159Z,11.60
2022-12-12T21:01:51.417Z,11.47
2022-12-12T21:04:18.048Z,12.27
2022-12-12T21:06:48.777Z,11.07
2022-12-12T21:09:22.578Z,10.67
2022-12-12T21:11:50.955Z,10.80
2022-12-12T21:14:17.793Z,10.73
2022-12-12T21:16:44.561Z,11.07
2022-12-12T21:19:13.648Z,10.70
2022-12-12T21:21:42.190Z,11.67
2022-12-12T21:24:11.413Z,11.50
2022-12-12T21:26:37.975Z,10.47
2022-12-12T21:29:04.998Z,10.73
2022-12-12T21:31:36.364Z,11.20
2022-12-12T21:34:04.888Z,11.63
2022-12-12T21:36:32.747Z,12.00
2022-12-12T21:39:00.960Z,11.00
2022-12-12T21:41:27.780Z,11.03
2022-12-12T21:43:56.899Z,10.50
2022-12-12T21:46:25.434Z,10.63
2022-12-12T21:49:11.599Z,11.10
2022-12-12T21:51:42.652Z,10.33
2022-12-12T21:54:11.488Z,11.53
2022-12-12T21:56:38.114Z,11.40
2022-12-12T21:59:04.836Z,11.13
2022-12-12T22:01:32.424Z,11.47
2022-12-12T22:04:00.266Z,11.87
2022-12-12T22:06:30.129Z,11.47
2022-12-12T22:08:57.776Z,11.80
2022-12-12T22:11:39.725Z,10.43
2022-12-12T22:14:09.274Z,11.73
2022-12-12T22:16:36.996Z,11.77
2022-12-12T22:19:10.243Z,10.57
2022-12-12T22:21:37.200Z,11.87
2022-12-12T22:24:04.680Z,11.27
2022-12-12T22:26:38.366Z,10.73
2022-12-12T22:29:07.931Z,11.73
2022-12-12T22:31:37.631Z,11.20
2022-12-12T22:34:17.523Z,12.07
2022-12-12T22:36:45.728Z,12.07
2022-12-12T22:39:18.080Z,13.03
2022-12-12T22:41:45.654Z,12.10
2022-12-12T22:44:15.817Z,11.87
2022-12-12T22:46:44.687Z,12.40
2022-12-12T22:49:13.657Z,11.53
2022-12-12T22:51:40.577Z,12.20
2022-12-12T22:54:07.429Z,12.43
2022-12-12T22:56:36.240Z,12.20
2022-12-12T22:59:03.976Z,10.97
2022-12-12T23:01:30.836Z,11.97
2022-12-12T23:03:57.915Z,12.37
2022-12-12T23:06:32.916Z,12.50
2022-12-12T23:09:14.294Z,11.90
2022-12-12T23:11:40.928Z,11.00
2022-12-12T23:14:11.412Z,12.37
2022-12-12T23:16:37.967Z,12.43
2022-12-12T23:19:06.355Z,11.20
2022-12-12T23:21:35.271Z,12.40
2022-12-12T23:24:02.673Z,11.33
2022-12-12T23:26:31.088Z,11.97
2022-12-12T23:28:58.921Z,12.10
2022-12-12T23:31:33.809Z,11.77
2022-12-12T23:34:04.053Z,12.07
2022-12-12T23:36:31.138Z,12.00
2022-12-12T23:39:03.293Z,11.93
2022-12-12T23:41:30.428Z,11.87
2022-12-12T23:43:57.175Z,11.73
2022-12-12T23:46:33.306Z,12.33
2022-12-12T23:49:07.027Z,11.40
2022-12-12T23:51:36.925Z,12.20
2022-12-12T23:54:06.210Z,11.63
2022-12-12T23:56:32.872Z,11.10
2022-12-12T23:59:00.201Z,12.27
